Time;durP1;ratioP1;P1;durP2;ratioP2;P2;SDS_P1;SDS_P2;PMS_P1;PMS_P2;Temp;Humidity;BMP_temperature;BMP_pressure;BME280_temperature;BME280_humidity;BME280_pressure;Samples;Min_cycle;Max_cycle;Signal;HPM_P1;HPM_P2
2021/05/03 00:00:06;;;;;;;0.70;0.50;;;;;;;;;;5032392;28;20885;-70
2021/05/03 00:02:35;;;;;;;0.70;0.60;;;;;;;;;;5013143;28;20738;-70
2021/05/03 00:05:01;;;;;;;0.90;0.60;;;;;;;;;;5013357;28;20784;-71
2021/05/03 00:07:27;;;;;;;0.80;0.60;;;;;;;;;;5013434;28;20383;-71
2021/05/03 00:09:53;;;;;;;0.70;0.50;;;;;;;;;;5012784;28;20405;-71
2021/05/03 00:12:19;;;;;;;1.00;0.60;;;;;;;;;;5002935;28;20419;-70
2021/05/03 00:14:45;;;;;;;1.07;0.63;;;;;;;;;;5013139;28;20466;-70
2021/05/03 00:17:11;;;;;;;0.70;0.50;;;;;;;;;;5013380;28;20517;-70
2021/05/03 00:19:37;;;;;;;0.70;0.40;;;;;;;;;;5011400;28;20435;-70
2021/05/03 00:22:03;;;;;;;2.10;0.77;;;;;;;;;;5013126;28;20396;-71
2021/05/03 00:24:29;;;;;;;0.80;0.60;;;;;;;;;;5012983;28;20421;-70
2021/05/03 00:26:55;;;;;;;0.80;0.70;;;;;;;;;;5013193;28;20436;-70
2021/05/03 00:29:24;;;;;;;1.10;0.97;;;;;;;;;;5011741;28;20377;-70
2021/05/03 00:31:50;;;;;;;0.70;0.50;;;;;;;;;;5009930;28;20454;-70
2021/05/03 00:34:16;;;;;;;0.73;0.53;;;;;;;;;;5007676;28;20395;-70
2021/05/03 00:36:41;;;;;;;0.90;0.73;;;;;;;;;;5013010;28;20405;-70
2021/05/03 00:39:10;;;;;;;0.77;0.40;;;;;;;;;;5007068;28;20386;-70
2021/05/03 00:41:36;;;;;;;0.70;0.53;;;;;;;;;;5012516;28;20418;-71
2021/05/03 00:44:02;;;;;;;0.70;0.60;;;;;;;;;;5012858;28;20397;-71
2021/05/03 00:46:28;;;;;;;1.30;0.57;;;;;;;;;;5012893;28;20924;-70
2021/05/03 00:48:54;;;;;;;0.70;0.50;;;;;;;;;;5011485;28;20386;-70
2021/05/03 00:51:20;;;;;;;0.80;0.70;;;;;;;;;;5012355;28;20489;-70
2021/05/03 00:53:48;;;;;;;0.80;0.63;;;;;;;;;;5011270;28;20514;-71
2021/05/03 00:56:14;;;;;;;0.70;0.50;;;;;;;;;;5013974;28;20391;-71
2021/05/03 00:58:41;;;;;;;0.80;0.60;;;;;;;;;;5013909;28;20464;-71
2021/05/03 01:01:07;;;;;;;1.13;0.97;;;;;;;;;;5012279;28;20929;-71
2021/05/03 01:03:35;;;;;;;0.70;0.50;;;;;;;;;;5012404;28;20429;-71
2021/05/03 01:06:01;;;;;;;0.80;0.60;;;;;;;;;;5012601;28;20448;-71
2021/05/03 01:08:27;;;;;;;0.80;0.70;;;;;;;;;;5012592;28;21040;-71
2021/05/03 01:10:53;;;;;;;0.80;0.60;;;;;;;;;;5012358;28;20395;-71
2021/05/03 01:13:19;;;;;;;0.80;0.50;;;;;;;;;;5012282;28;20416;-71
2021/05/03 01:15:45;;;;;;;0.80;0.50;;;;;;;;;;5012346;28;20422;-71
2021/05/03 01:18:11;;;;;;;0.80;0.60;;;;;;;;;;5012336;28;20987;-72
2021/05/03 01:20:39;;;;;;;1.23;1.13;;;;;;;;;;5011853;28;20443;-71
2021/05/03 01:23:06;;;;;;;1.17;0.80;;;;;;;;;;5010972;28;20917;-72
2021/05/03 01:25:37;;;;;;;0.73;0.60;;;;;;;;;;5012117;28;20394;-72
2021/05/03 01:28:06;;;;;;;1.63;0.53;;;;;;;;;;5010894;28;20402;-72
2021/05/03 01:30:36;;;;;;;0.70;0.50;;;;;;;;;;5011989;28;20755;-70
2021/05/03 01:33:03;;;;;;;0.80;0.70;;;;;;;;;;5011695;28;20422;-72
2021/05/03 01:35:29;;;;;;;0.80;0.73;;;;;;;;;;5012046;28;20869;-71
2021/05/03 01:37:56;;;;;;;1.83;0.73;;;;;;;;;;5012073;28;20433;-71
2021/05/03 01:40:23;;;;;;;0.80;0.60;;;;;;;;;;5022246;28;20450;-70
2021/05/03 01:42:49;;;;;;;0.70;0.50;;;;;;;;;;5023902;28;20400;-71
2021/05/03 01:45:21;;;;;;;1.00;0.60;;;;;;;;;;5010607;28;20402;-70
2021/05/03 01:47:47;;;;;;;0.70;0.50;;;;;;;;;;4992169;28;20816;-71
2021/05/03 01:50:13;;;;;;;0.90;0.50;;;;;;;;;;4990470;28;20412;-70
2021/05/03 01:52:39;;;;;;;4.70;0.80;;;;;;;;;;5005953;28;20482;-70
2021/05/03 01:55:05;;;;;;;0.70;0.40;;;;;;;;;;5011548;28;20519;-72
2021/05/03 01:57:31;;;;;;;0.80;0.60;;;;;;;;;;5011417;28;20951;-71
2021/05/03 01:59:57;;;;;;;0.70;0.40;;;;;;;;;;5010574;28;20509;-72
2021/05/03 02:02:23;;;;;;;0.70;0.50;;;;;;;;;;5011366;28;20417;-71
2021/05/03 02:04:49;;;;;;;0.80;0.60;;;;;;;;;;5011346;28;20475;-70
2021/05/03 02:07:16;;;;;;;0.70;0.43;;;;;;;;;;5010192;28;20390;-70
2021/05/03 02:09:45;;;;;;;2.23;0.87;;;;;;;;;;5010147;28;20390;-71
2021/05/03 02:12:14;;;;;;;0.80;0.50;;;;;;;;;;5012633;28;20419;-73
2021/05/03 02:14:40;;;;;;;0.80;0.43;;;;;;;;;;5015165;28;20461;-71
2021/05/03 02:17:09;;;;;;;1.47;1.37;;;;;;;;;;5015748;28;20446;-71
2021/05/03 02:19:35;;;;;;;3.33;1.03;;;;;;;;;;5014129;28;20409;-71
2021/05/03 02:22:01;;;;;;;0.70;0.60;;;;;;;;;;5014309;28;20447;-71
2021/05/03 02:24:27;;;;;;;1.00;0.73;;;;;;;;;;5014955;28;20428;-71
2021/05/03 02:26:53;;;;;;;0.80;0.50;;;;;;;;;;5012169;28;20423;-71
2021/05/03 02:29:19;;;;;;;0.77;0.63;;;;;;;;;;5010168;28;20387;-71
2021/05/03 02:31:45;;;;;;;0.70;0.50;;;;;;;;;;5011067;28;20477;-71
2021/05/03 02:34:11;;;;;;;1.27;1.07;;;;;;;;;;5010832;28;20451;-71
2021/05/03 02:36:37;;;;;;;1.57;0.57;;;;;;;;;;5010490;28;20410;-71
2021/05/03 02:39:04;;;;;;;0.80;0.60;;;;;;;;;;5010518;28;20472;-70
2021/05/03 02:41:33;;;;;;;0.70;0.50;;;;;;;;;;5010807;28;20455;-71
2021/05/03 02:44:00;;;;;;;0.80;0.60;;;;;;;;;;5010704;28;20420;-71
2021/05/03 02:46:27;;;;;;;19.33;12.63;;;;;;;;;;4993256;28;20390;-71
2021/05/03 02:48:53;;;;;;;0.70;0.60;;;;;;;;;;5009230;28;20481;-71
2021/05/03 02:51:19;;;;;;;0.70;0.50;;;;;;;;;;5009586;28;20742;-71
2021/05/03 02:53:44;;;;;;;0.70;0.50;;;;;;;;;;5010503;28;20742;-71
2021/05/03 02:56:10;;;;;;;0.80;0.70;;;;;;;;;;5010914;28;20846;-70
2021/05/03 02:58:36;;;;;;;1.03;0.70;;;;;;;;;;5010554;28;20426;-69
2021/05/03 03:01:02;;;;;;;0.70;0.40;;;;;;;;;;5008440;28;20390;-73
2021/05/03 03:03:28;;;;;;;2.93;0.70;;;;;;;;;;5010405;28;20490;-71
2021/05/03 03:05:57;;;;;;;0.70;0.50;;;;;;;;;;5010899;28;20414;-71
2021/05/03 03:08:23;;;;;;;0.90;0.73;;;;;;;;;;5010808;28;20405;-71
2021/05/03 03:10:49;;;;;;;0.80;0.60;;;;;;;;;;5011028;28;20440;-71
2021/05/03 03:13:15;;;;;;;0.90;0.73;;;;;;;;;;5010101;28;20393;-69
2021/05/03 03:15:44;;;;;;;0.80;0.60;;;;;;;;;;5010399;28;20449;-72
2021/05/03 03:18:12;;;;;;;2.53;0.57;;;;;;;;;;5010698;28;20569;-71
2021/05/03 03:20:38;;;;;;;0.90;0.60;;;;;;;;;;5010484;28;20437;-71
2021/05/03 03:23:04;;;;;;;0.80;0.50;;;;;;;;;;5009101;28;20812;-71
2021/05/03 03:25:33;;;;;;;1.07;0.57;;;;;;;;;;5010198;28;20836;-72
2021/05/03 03:28:02;;;;;;;0.70;0.50;;;;;;;;;;5010600;28;20809;-71
2021/05/03 03:30:27;;;;;;;1.30;0.70;;;;;;;;;;5009639;28;20423;-72
2021/05/03 03:32:53;;;;;;;0.80;0.57;;;;;;;;;;5010477;28;20458;-71
2021/05/03 03:35:20;;;;;;;1.90;1.00;;;;;;;;;;5010141;28;20410;-72
2021/05/03 03:37:46;;;;;;;5.33;0.90;;;;;;;;;;5008727;28;20465;-70
2021/05/03 03:40:14;;;;;;;0.90;0.60;;;;;;;;;;5010020;28;20423;-71
2021/05/03 03:42:40;;;;;;;1.20;0.97;;;;;;;;;;5009676;28;20423;-71
2021/05/03 03:45:07;;;;;;;2.50;1.07;;;;;;;;;;5009639;28;20441;-72
2021/05/03 03:47:36;;;;;;;0.70;0.50;;;;;;;;;;5009530;28;20435;-71
2021/05/03 03:50:02;;;;;;;0.80;0.50;;;;;;;;;;5010178;28;20434;-71
2021/05/03 03:52:28;;;;;;;2.97;2.77;;;;;;;;;;5012598;28;20476;-70
2021/05/03 03:54:54;;;;;;;1.57;0.63;;;;;;;;;;5010288;28;21148;-72
2021/05/03 03:57:20;;;;;;;0.80;0.53;;;;;;;;;;5010203;28;20931;-71
2021/05/03 03:59:50;;;;;;;0.70;0.50;;;;;;;;;;5014150;28;20390;-70
2021/05/03 04:02:16;;;;;;;0.90;0.60;;;;;;;;;;5013609;28;20400;-71
2021/05/03 04:04:46;;;;;;;0.73;0.57;;;;;;;;;;5012809;28;20968;-72
2021/05/03 04:07:33;;;;;;;0.80;0.70;;;;;;;;;;5003940;28;20401;-71
2021/05/03 04:21:31;;;;;;;0.77;0.60;;;;;;;;;;5013026;28;20431;-71
2021/05/03 04:25:50;;;;;;;0.83;0.70;;;;;;;;;;5012814;28;20434;-70
2021/05/03 04:28:16;;;;;;;0.90;0.70;;;;;;;;;;5011603;28;20475;-71
2021/05/03 04:30:42;;;;;;;1.70;1.60;;;;;;;;;;5012339;28;20504;-72
2021/05/03 04:33:08;;;;;;;0.70;0.50;;;;;;;;;;5012701;28;20389;-72
2021/05/03 04:35:34;;;;;;;3.00;1.10;;;;;;;;;;5011503;28;20431;-72
2021/05/03 04:38:00;;;;;;;0.70;0.50;;;;;;;;;;5011206;28;20454;-72
2021/05/03 04:40:26;;;;;;;1.20;0.97;;;;;;;;;;5012533;28;20801;-72
2021/05/03 04:42:52;;;;;;;1.30;0.63;;;;;;;;;;5012558;28;20759;-71
2021/05/03 04:45:18;;;;;;;0.90;0.60;;;;;;;;;;5011465;28;20436;-72
2021/05/03 04:47:44;;;;;;;0.80;0.50;;;;;;;;;;5012553;28;20436;-70
2021/05/03 04:50:10;;;;;;;1.10;1.00;;;;;;;;;;5010732;28;20412;-70
2021/05/03 04:52:37;;;;;;;1.20;1.10;;;;;;;;;;5011792;28;20809;-72
2021/05/03 04:55:04;;;;;;;4.40;1.03;;;;;;;;;;5012056;28;20953;-72
2021/05/03 04:57:30;;;;;;;0.87;0.87;;;;;;;;;;5014727;28;20545;-71
2021/05/03 04:59:56;;;;;;;0.90;0.60;;;;;;;;;;5025646;28;20508;-74
2021/05/03 05:02:24;;;;;;;0.80;0.60;;;;;;;;;;5011518;28;20459;-73
2021/05/03 05:04:50;;;;;;;0.70;0.50;;;;;;;;;;5011680;28;20454;-73
2021/05/03 05:07:19;;;;;;;3.90;0.80;;;;;;;;;;5011961;28;20408;-73
2021/05/03 05:09:45;;;;;;;1.10;1.00;;;;;;;;;;5007175;28;20447;-73
2021/05/03 05:12:11;;;;;;;0.70;0.50;;;;;;;;;;5011873;28;20404;-73
2021/05/03 05:14:37;;;;;;;1.37;1.20;;;;;;;;;;5010179;28;20463;-73
2021/05/03 05:17:03;;;;;;;0.80;0.60;;;;;;;;;;5011887;28;20402;-73
2021/05/03 05:19:29;;;;;;;0.80;0.70;;;;;;;;;;5011959;28;20411;-72
2021/05/03 05:21:55;;;;;;;0.70;0.50;;;;;;;;;;5009757;28;20803;-73
2021/05/03 05:24:21;;;;;;;0.80;0.50;;;;;;;;;;5011651;28;20924;-71
2021/05/03 05:26:47;;;;;;;0.70;0.60;;;;;;;;;;5010863;28;20440;-72
2021/05/03 05:29:13;;;;;;;1.17;1.07;;;;;;;;;;5011567;28;20397;-71
2021/05/03 05:31:41;;;;;;;1.97;0.70;;;;;;;;;;5011621;28;20390;-73
2021/05/03 05:34:07;;;;;;;1.00;0.50;;;;;;;;;;5011821;28;20419;-71
2021/05/03 05:36:33;;;;;;;1.60;0.83;;;;;;;;;;5011966;28;20940;-71
2021/05/03 05:39:00;;;;;;;0.70;0.60;;;;;;;;;;5011143;28;20465;-72
2021/05/03 05:41:26;;;;;;;1.13;0.83;;;;;;;;;;5011611;28;20511;-71
2021/05/03 05:43:52;;;;;;;0.70;0.50;;;;;;;;;;5011885;28;20431;-72
2021/05/03 05:46:18;;;;;;;3.27;1.07;;;;;;;;;;5011732;28;20429;-72
2021/05/03 05:48:45;;;;;;;0.70;0.40;;;;;;;;;;5011741;28;20387;-72
2021/05/03 05:51:13;;;;;;;0.70;0.50;;;;;;;;;;5011268;28;20420;-71
2021/05/03 05:53:39;;;;;;;0.80;0.60;;;;;;;;;;5011343;28;20409;-72
2021/05/03 05:56:05;;;;;;;1.77;0.77;;;;;;;;;;5010706;28;20522;-72
2021/05/03 05:58:33;;;;;;;3.13;0.63;;;;;;;;;;5010661;28;20535;-71
2021/05/03 06:01:01;;;;;;;3.33;0.60;;;;;;;;;;5011158;28;20407;-72
2021/05/03 06:03:27;;;;;;;1.03;0.93;;;;;;;;;;5010892;28;20451;-72
2021/05/03 06:05:53;;;;;;;0.90;0.70;;;;;;;;;;5002595;28;20397;-72
2021/05/03 06:08:20;;;;;;;2.07;0.73;;;;;;;;;;5007833;28;20818;-72
2021/05/03 06:10:46;;;;;;;0.70;0.50;;;;;;;;;;5008403;28;20437;-72
2021/05/03 06:13:12;;;;;;;0.70;0.40;;;;;;;;;;5010057;28;20978;-71
2021/05/03 06:15:38;;;;;;;0.90;0.60;;;;;;;;;;5010450;28;20523;-72
2021/05/03 06:18:05;;;;;;;0.80;0.60;;;;;;;;;;5002581;28;20947;-73
2021/05/03 06:20:34;;;;;;;0.83;0.50;;;;;;;;;;5009774;28;20500;-72
2021/05/03 06:23:00;;;;;;;1.83;0.80;;;;;;;;;;5011279;28;20400;-73
2021/05/03 06:25:29;;;;;;;1.13;1.00;;;;;;;;;;5010866;28;20444;-72
2021/05/03 06:27:55;;;;;;;1.13;0.60;;;;;;;;;;5011076;28;20417;-72
2021/05/03 06:30:23;;;;;;;0.70;0.50;;;;;;;;;;5009319;28;20406;-74
2021/05/03 06:32:49;;;;;;;1.17;0.97;;;;;;;;;;4993669;28;20418;-72
2021/05/03 06:35:15;;;;;;;0.80;0.73;;;;;;;;;;5010818;28;20468;-72
2021/05/03 06:37:43;;;;;;;0.83;0.63;;;;;;;;;;5011295;28;20553;-73
2021/05/03 06:40:10;;;;;;;1.00;0.60;;;;;;;;;;5010399;28;20436;-71
2021/05/03 06:42:36;;;;;;;0.90;0.70;;;;;;;;;;5011147;28;20534;-72
2021/05/03 06:45:04;;;;;;;0.83;0.70;;;;;;;;;;5011103;28;20427;-72
2021/05/03 06:47:31;;;;;;;0.80;0.60;;;;;;;;;;5002178;28;20811;-72
2021/05/03 06:49:57;;;;;;;0.90;0.80;;;;;;;;;;5008393;28;20919;-71
2021/05/03 06:52:23;;;;;;;2.60;0.90;;;;;;;;;;5000564;28;20508;-72
2021/05/03 06:54:49;;;;;;;0.80;0.50;;;;;;;;;;5009209;28;20441;-71
2021/05/03 06:57:16;;;;;;;0.70;0.50;;;;;;;;;;5008861;28;20538;-73
2021/05/03 06:59:42;;;;;;;0.77;0.60;;;;;;;;;;5008394;28;20895;-72
2021/05/03 07:02:10;;;;;;;1.10;0.73;;;;;;;;;;5004068;28;20410;-72
2021/05/03 07:04:36;;;;;;;0.80;0.70;;;;;;;;;;4999487;28;20428;-71
2021/05/03 07:07:02;;;;;;;0.80;0.60;;;;;;;;;;5009079;28;20436;-72
2021/05/03 07:09:31;;;;;;;0.70;0.50;;;;;;;;;;5008481;28;21070;-72
2021/05/03 07:11:57;;;;;;;0.80;0.50;;;;;;;;;;5010160;28;20378;-72
2021/05/03 07:14:23;;;;;;;1.10;0.77;;;;;;;;;;5008366;28;20429;-71
2021/05/03 07:16:49;;;;;;;6.43;0.80;;;;;;;;;;5006108;28;20778;-72
2021/05/03 07:19:15;;;;;;;0.70;0.60;;;;;;;;;;5002043;28;20481;-74
2021/05/03 07:21:42;;;;;;;0.90;0.70;;;;;;;;;;5001456;28;20994;-72
2021/05/03 07:24:10;;;;;;;0.80;0.60;;;;;;;;;;5013493;28;20460;-72
2021/05/03 07:26:36;;;;;;;0.90;0.50;;;;;;;;;;5015114;28;20389;-73
2021/05/03 07:29:02;;;;;;;1.00;0.70;;;;;;;;;;5004712;28;20742;-73
2021/05/03 07:31:28;;;;;;;0.70;0.50;;;;;;;;;;5007363;28;20419;-71
2021/05/03 07:33:54;;;;;;;1.00;0.60;;;;;;;;;;5013327;28;20477;-73
2021/05/03 07:36:20;;;;;;;0.70;0.50;;;;;;;;;;5014817;28;20411;-73
2021/05/03 07:38:49;;;;;;;0.80;0.67;;;;;;;;;;5015603;28;20425;-73
2021/05/03 07:41:15;;;;;;;0.70;0.40;;;;;;;;;;5013417;28;20543;-71
2021/05/03 07:43:41;;;;;;;0.70;0.50;;;;;;;;;;5010409;28;20412;-71
2021/05/03 07:46:07;;;;;;;1.20;0.70;;;;;;;;;;5018016;28;20456;-71
2021/05/03 07:48:32;;;;;;;14.47;0.93;;;;;;;;;;5017311;28;20519;-73
2021/05/03 07:51:01;;;;;;;0.90;0.60;;;;;;;;;;5011839;28;20880;-72
2021/05/03 07:53:27;;;;;;;0.70;0.47;;;;;;;;;;5013383;28;20418;-73
2021/05/03 07:55:53;;;;;;;3.80;1.17;;;;;;;;;;5012616;28;20427;-73
2021/05/03 07:58:21;;;;;;;1.63;0.93;;;;;;;;;;5022286;28;20449;-73
2021/05/03 08:00:49;;;;;;;0.80;0.70;;;;;;;;;;5033245;28;20382;-71
2021/05/03 08:03:19;;;;;;;0.70;0.40;;;;;;;;;;5012245;28;20922;-72
2021/05/03 08:05:45;;;;;;;0.70;0.50;;;;;;;;;;5012109;28;20444;-73
2021/05/03 08:08:13;;;;;;;0.70;0.60;;;;;;;;;;5012299;28;20429;-72
2021/05/03 08:10:40;;;;;;;0.70;0.40;;;;;;;;;;5013556;28;20380;-73
2021/05/03 08:13:06;;;;;;;0.80;0.60;;;;;;;;;;5013456;28;20379;-73
2021/05/03 08:15:32;;;;;;;1.43;0.80;;;;;;;;;;5013416;28;20444;-72
2021/05/03 08:17:58;;;;;;;0.80;0.63;;;;;;;;;;5013377;28;20528;-72
2021/05/03 08:20:24;;;;;;;0.90;0.70;;;;;;;;;;5012876;28;20483;-72
2021/05/03 08:22:52;;;;;;;1.80;0.73;;;;;;;;;;5013310;28;20404;-72
2021/05/03 08:25:18;;;;;;;1.33;0.90;;;;;;;;;;5008067;28;20403;-74
2021/05/03 08:27:44;;;;;;;1.20;0.80;;;;;;;;;;5010273;28;20431;-75
2021/05/03 08:30:11;;;;;;;0.70;0.50;;;;;;;;;;5010925;28;20401;-73
2021/05/03 08:32:36;;;;;;;1.43;0.60;;;;;;;;;;5010692;28;20428;-73
2021/05/03 08:35:03;;;;;;;0.80;0.50;;;;;;;;;;5011807;28;20739;-74
2021/05/03 08:37:30;;;;;;;0.80;0.60;;;;;;;;;;5013771;28;20431;-76
2021/05/03 08:39:56;;;;;;;0.80;0.50;;;;;;;;;;5011824;28;20425;-74
2021/05/03 08:42:22;;;;;;;0.73;0.57;;;;;;;;;;5010839;28;20410;-74
2021/05/03 08:44:52;;;;;;;1.03;0.73;;;;;;;;;;5011028;28;20403;-74
2021/05/03 08:47:18;;;;;;;2.00;1.00;;;;;;;;;;5011590;28;20492;-74
2021/05/03 08:50:05;;;;;;;0.70;0.50;;;;;;;;;;5002798;28;20404;-75
2021/05/03 08:55:04;;;;;;;0.90;0.77;;;;;;;;;;5009658;28;20440;-74
2021/05/03 08:57:32;;;;;;;1.03;0.70;;;;;;;;;;5012531;28;20538;-75
2021/05/03 08:59:58;;;;;;;0.83;0.67;;;;;;;;;;5012175;28;20826;-76
2021/05/03 09:02:26;;;;;;;1.10;0.60;;;;;;;;;;5011997;28;20409;-72
2021/05/03 09:04:52;;;;;;;0.80;0.70;;;;;;;;;;5007927;28;20528;-74
2021/05/03 09:07:20;;;;;;;3.13;0.80;;;;;;;;;;5011250;28;20466;-75
2021/05/03 09:09:48;;;;;;;1.07;0.70;;;;;;;;;;5010806;28;20391;-74
2021/05/03 09:12:23;;;;;;;4.80;1.57;;;;;;;;;;4997075;28;20429;-73
2021/05/03 09:14:51;;;;;;;1.23;0.80;;;;;;;;;;5008059;28;20926;-73
2021/05/03 09:17:23;;;;;;;0.80;0.50;;;;;;;;;;5011590;28;20513;-75
2021/05/03 09:19:49;;;;;;;1.33;0.97;;;;;;;;;;5011317;28;20899;-73
2021/05/03 09:22:41;;;;;;;4.87;1.40;;;;;;;;;;5001411;28;20842;-76
2021/05/03 09:25:30;;;;;;;1.50;1.20;;;;;;;;;;5010439;28;20425;-74
2021/05/03 09:28:02;;;;;;;0.80;0.70;;;;;;;;;;5010990;28;20404;-74
2021/05/03 09:30:36;;;;;;;0.80;0.70;;;;;;;;;;5010066;28;20467;-72
2021/05/03 09:33:21;;;;;;;1.70;1.07;;;;;;;;;;4997081;28;20833;-74
2021/05/03 09:35:47;;;;;;;1.33;0.90;;;;;;;;;;5009826;28;20444;-73
2021/05/03 09:38:32;;;;;;;1.30;0.70;;;;;;;;;;5011689;28;21031;-75
2021/05/03 09:41:11;;;;;;;1.10;0.70;;;;;;;;;;5011007;28;20431;-74
2021/05/03 09:43:37;;;;;;;0.73;0.60;;;;;;;;;;5010329;28;20516;-74
2021/05/03 09:46:23;;;;;;;1.23;0.90;;;;;;;;;;5011592;28;20928;-74
2021/05/03 09:48:49;;;;;;;1.47;0.93;;;;;;;;;;5002755;28;20507;-72
2021/05/03 09:51:35;;;;;;;1.43;0.97;;;;;;;;;;5008308;28;20411;-76
2021/05/03 09:54:07;;;;;;;1.10;0.60;;;;;;;;;;5009939;28;20424;-73
2021/05/03 09:56:52;;;;;;;1.50;1.30;;;;;;;;;;5005815;28;20494;-75
2021/05/03 09:59:36;;;;;;;1.07;0.97;;;;;;;;;;5008591;28;20999;-73
2021/05/03 10:02:09;;;;;;;2.17;1.23;;;;;;;;;;5009903;28;20428;-73
2021/05/03 10:04:37;;;;;;;0.80;0.80;;;;;;;;;;5006867;28;20838;-77
2021/05/03 10:07:03;;;;;;;1.20;1.10;;;;;;;;;;5008802;28;20417;-74
2021/05/03 10:09:31;;;;;;;2.37;1.37;;;;;;;;;;5019405;28;20472;-73
2021/05/03 10:11:57;;;;;;;2.03;1.37;;;;;;;;;;5017787;28;20402;-75
2021/05/03 10:14:24;;;;;;;1.07;0.97;;;;;;;;;;5013829;28;20413;-76
2021/05/03 10:16:50;;;;;;;1.20;1.10;;;;;;;;;;5012819;28;20412;-74
2021/05/03 10:19:18;;;;;;;2.50;0.90;;;;;;;;;;5003300;28;20505;-72
2021/05/03 10:21:44;;;;;;;1.30;1.10;;;;;;;;;;5010807;28;20918;-73
2021/05/03 10:24:12;;;;;;;1.97;1.13;;;;;;;;;;5013309;28;20425;-74
2021/05/03 10:26:39;;;;;;;1.47;0.80;;;;;;;;;;5013886;28;20413;-74
2021/05/03 10:29:05;;;;;;;1.17;0.80;;;;;;;;;;5013886;28;20408;-76
2021/05/03 10:31:51;;;;;;;1.40;0.80;;;;;;;;;;5015346;28;21738;-77
2021/05/03 10:34:53;;;;;;;1.00;0.70;;;;;;;;;;5012248;28;20530;-74
2021/05/03 10:37:31;;;;;;;1.00;0.70;;;;;;;;;;4964172;28;20879;-73
2021/05/03 10:39:58;;;;;;;4.40;1.00;;;;;;;;;;5005520;28;20461;-73
2021/05/03 10:42:24;;;;;;;1.43;0.93;;;;;;;;;;5009765;28;20906;-75
2021/05/03 10:45:07;;;;;;;0.80;0.80;;;;;;;;;;5010830;28;20424;-75
2021/05/03 10:47:58;;;;;;;1.00;0.90;;;;;;;;;;5009633;28;20423;-75
2021/05/03 10:50:37;;;;;;;1.30;0.93;;;;;;;;;;5006740;28;20425;-74
2021/05/03 10:53:25;;;;;;;0.80;0.80;;;;;;;;;;5008207;28;20439;-72
2021/05/03 10:55:52;;;;;;;2.17;1.00;;;;;;;;;;5007025;28;20590;-73
2021/05/03 10:58:18;;;;;;;1.17;1.07;;;;;;;;;;5010167;28;20575;-72
2021/05/03 11:00:55;;;;;;;2.17;1.97;;;;;;;;;;5011521;28;20499;-73
2021/05/03 11:03:41;;;;;;;1.27;1.17;;;;;;;;;;5013151;28;20386;-73
2021/05/03 11:06:07;;;;;;;1.07;0.90;;;;;;;;;;5014127;28;20768;-73
2021/05/03 11:08:33;;;;;;;1.90;1.17;;;;;;;;;;5013286;28;20399;-73
2021/05/03 11:11:04;;;;;;;0.90;0.80;;;;;;;;;;5013122;28;20410;-73
2021/05/03 11:13:38;;;;;;;0.90;0.80;;;;;;;;;;5023022;28;20383;-72
2021/05/03 11:16:23;;;;;;;1.97;0.97;;;;;;;;;;5018830;28;20888;-72
2021/05/03 11:18:49;;;;;;;0.80;0.63;;;;;;;;;;5021651;28;20456;-73
2021/05/03 11:21:17;;;;;;;1.40;1.20;;;;;;;;;;5023141;28;20423;-74
2021/05/03 11:23:43;;;;;;;0.90;0.80;;;;;;;;;;5025384;28;20440;-73
2021/05/03 11:26:22;;;;;;;2.00;1.10;;;;;;;;;;5018340;28;20407;-74
2021/05/03 11:28:48;;;;;;;1.23;0.90;;;;;;;;;;5035911;28;20845;-72
2021/05/03 11:31:17;;;;;;;2.13;0.90;;;;;;;;;;5021236;28;20439;-73
2021/05/03 11:33:47;;;;;;;1.13;0.97;;;;;;;;;;5014878;28;20470;-74
2021/05/03 11:36:23;;;;;;;1.60;1.27;;;;;;;;;;5012721;28;20420;-73
2021/05/03 11:38:57;;;;;;;1.73;1.63;;;;;;;;;;5012800;28;20530;-74
2021/05/03 11:44:29;;;;;;;0.80;0.63;;;;;;;;;;5012909;28;20456;-74
2021/05/03 11:46:55;;;;;;;0.80;0.60;;;;;;;;;;4996568;28;20360;-72
2021/05/03 11:49:24;;;;;;;0.90;0.70;;;;;;;;;;5012403;28;20418;-73
2021/05/03 11:51:53;;;;;;;0.90;0.70;;;;;;;;;;5013588;28;20418;-73
2021/05/03 11:54:27;;;;;;;1.43;0.77;;;;;;;;;;5011566;28;20474;-74
2021/05/03 11:57:00;;;;;;;1.40;0.93;;;;;;;;;;5013693;28;20415;-73
2021/05/03 11:59:26;;;;;;;1.03;0.87;;;;;;;;;;5012893;28;20949;-72
2021/05/03 12:02:01;;;;;;;1.27;1.03;;;;;;;;;;5013650;28;20424;-71
2021/05/03 12:04:44;;;;;;;1.83;1.20;;;;;;;;;;5011503;28;20583;-74
2021/05/03 12:07:21;;;;;;;1.00;0.87;;;;;;;;;;5011082;28;20779;-73
2021/05/03 12:09:48;;;;;;;1.00;0.70;;;;;;;;;;5009753;28;20538;-73
2021/05/03 12:12:14;;;;;;;1.73;1.63;;;;;;;;;;5013751;28;20408;-73
2021/05/03 12:14:43;;;;;;;1.40;0.70;;;;;;;;;;5012679;28;20403;-74
2021/05/03 12:17:17;;;;;;;3.20;1.70;;;;;;;;;;5023646;28;20524;-73
2021/05/03 12:19:43;;;;;;;2.10;1.50;;;;;;;;;;5023872;28;20399;-73
2021/05/03 12:22:09;;;;;;;2.73;1.43;;;;;;;;;;5015513;28;20424;-73
2021/05/03 12:24:38;;;;;;;2.03;1.00;;;;;;;;;;5013084;28;20880;-73
2021/05/03 12:27:04;;;;;;;1.77;1.50;;;;;;;;;;5012305;28;20423;-74
2021/05/03 12:29:30;;;;;;;2.03;0.90;;;;;;;;;;5012591;28;20417;-73
2021/05/03 12:31:56;;;;;;;0.97;0.90;;;;;;;;;;5013831;28;20409;-74
2021/05/03 12:34:24;;;;;;;1.37;1.03;;;;;;;;;;5011969;28;20440;-73
2021/05/03 12:37:08;;;;;;;1.67;1.30;;;;;;;;;;5011871;28;20504;-73
2021/05/03 12:39:40;;;;;;;1.77;1.10;;;;;;;;;;5013117;28;20481;-73
2021/05/03 12:42:16;;;;;;;1.60;1.40;;;;;;;;;;5013370;28;20374;-74
2021/05/03 12:44:48;;;;;;;4.83;1.60;;;;;;;;;;5014164;28;20420;-74
2021/05/03 12:47:19;;;;;;;2.40;1.67;;;;;;;;;;5013094;28;20415;-74
2021/05/03 12:49:58;;;;;;;3.00;1.73;;;;;;;;;;5012559;28;20400;-73
2021/05/03 12:52:30;;;;;;;2.00;1.40;;;;;;;;;;5010984;28;20424;-73
2021/05/03 12:55:05;;;;;;;4.93;3.00;;;;;;;;;;5012714;28;20791;-75
2021/05/03 12:57:48;;;;;;;1.63;1.53;;;;;;;;;;5011776;28;20490;-75
2021/05/03 13:00:19;;;;;;;3.80;3.10;;;;;;;;;;5011070;28;20948;-71
2021/05/03 13:03:12;;;;;;;3.92;2.97;;;;;;;;;;5010663;28;20419;-74
2021/05/03 13:06:05;;;;;;;1.53;1.33;;;;;;;;;;5012146;28;20189;-74
2021/05/03 13:08:47;;;;;;;5.80;2.70;;;;;;;;;;5011718;28;20931;-75
2021/05/03 13:29:05;;;;;;;1.43;1.23;;;;;;;;;;5009719;28;20942;-76
2021/05/03 13:31:32;;;;;;;2.07;1.87;;;;;;;;;;5008024;28;20463;-74
2021/05/03 13:33:59;;;;;;;2.27;1.70;;;;;;;;;;5009406;28;20438;-75
2021/05/03 13:36:25;;;;;;;2.80;1.63;;;;;;;;;;5010192;28;20516;-75
2021/05/03 13:38:51;;;;;;;3.10;1.73;;;;;;;;;;5011626;28;20498;-75
2021/05/03 13:41:17;;;;;;;4.10;1.50;;;;;;;;;;5007847;28;20515;-75
2021/05/03 13:43:46;;;;;;;1.87;1.47;;;;;;;;;;5009792;28;20384;-76
2021/05/03 13:46:12;;;;;;;2.43;2.23;;;;;;;;;;5011526;28;20412;-75
2021/05/03 13:48:39;;;;;;;3.40;1.77;;;;;;;;;;5011940;28;20422;-76
2021/05/03 13:51:06;;;;;;;6.60;2.97;;;;;;;;;;5005527;28;20519;-75
2021/05/03 13:53:33;;;;;;;2.53;2.33;;;;;;;;;;5010093;28;20417;-75
2021/05/03 13:55:59;;;;;;;3.90;2.17;;;;;;;;;;5011694;28;20471;-76
2021/05/03 13:58:25;;;;;;;2.27;2.13;;;;;;;;;;5007887;28;20459;-75
2021/05/03 14:00:51;;;;;;;2.93;2.00;;;;;;;;;;5010365;28;20409;-75
2021/05/03 14:03:17;;;;;;;3.07;2.20;;;;;;;;;;5011620;28;20418;-74
2021/05/03 14:05:43;;;;;;;3.83;2.10;;;;;;;;;;5007005;28;20916;-77
2021/05/03 14:08:09;;;;;;;4.47;2.90;;;;;;;;;;5010632;28;20496;-75
2021/05/03 14:10:35;;;;;;;15.13;4.80;;;;;;;;;;5001823;28;20600;-74
2021/05/03 14:13:03;;;;;;;2.47;1.83;;;;;;;;;;5003125;28;20478;-75
2021/05/03 14:15:31;;;;;;;2.67;1.80;;;;;;;;;;5012453;28;20450;-74
2021/05/03 14:17:57;;;;;;;2.47;1.90;;;;;;;;;;5022896;28;20418;-73
2021/05/03 14:20:26;;;;;;;4.83;2.10;;;;;;;;;;5024237;28;20408;-72
2021/05/03 14:22:52;;;;;;;3.20;1.97;;;;;;;;;;5027375;28;20463;-71
2021/05/03 14:27:52;;;;;;;3.10;1.97;;;;;;;;;;5009205;28;20478;-75
2021/05/03 14:30:25;;;;;;;3.47;2.10;;;;;;;;;;5011056;28;20395;-75
2021/05/03 14:33:11;;;;;;;2.87;1.23;;;;;;;;;;5011151;28;20383;-74
2021/05/03 14:35:37;;;;;;;3.70;1.93;;;;;;;;;;5010378;28;20871;-75
2021/05/03 14:38:03;;;;;;;9.20;8.40;;;;;;;;;;5011025;28;20519;-75
2021/05/03 14:40:29;;;;;;;2.60;2.10;;;;;;;;;;5010909;28;20888;-75
2021/05/03 14:42:59;;;;;;;1.90;1.70;;;;;;;;;;5009760;28;20416;-75
2021/05/03 14:45:30;;;;;;;3.13;2.40;;;;;;;;;;5010830;28;20423;-76
2021/05/03 14:48:11;;;;;;;2.87;2.07;;;;;;;;;;5011689;28;20786;-76
2021/05/03 14:53:27;;;;;;;5.70;2.30;;;;;;;;;;5010694;28;20463;-74
2021/05/03 14:55:56;;;;;;;1.77;1.37;;;;;;;;;;5007210;28;20454;-74
2021/05/03 14:58:22;;;;;;;2.47;2.00;;;;;;;;;;5011822;28;20954;-74
2021/05/03 15:00:48;;;;;;;1.13;1.00;;;;;;;;;;5009832;28;20380;-74
2021/05/03 15:03:14;;;;;;;2.60;1.50;;;;;;;;;;5006926;28;20398;-75
2021/05/03 15:05:41;;;;;;;6.10;1.60;;;;;;;;;;5011247;28;20434;-74
2021/05/03 15:08:11;;;;;;;1.90;1.43;;;;;;;;;;5009519;28;20394;-74
2021/05/03 15:10:39;;;;;;;2.60;1.07;;;;;;;;;;5007111;28;20397;-75
2021/05/03 15:13:13;;;;;;;9.40;2.50;;;;;;;;;;5009556;28;20422;-76
2021/05/03 15:23:33;;;;;;;3.27;1.23;;;;;;;;;;5000526;28;20425;-75
2021/05/03 15:26:01;;;;;;;4.10;1.50;;;;;;;;;;5005845;28;20517;-76
2021/05/03 15:33:53;;;;;;;2.13;2.00;;;;;;;;;;5001388;28;20422;-75
2021/05/03 15:36:22;;;;;;;3.73;2.80;;;;;;;;;;5001650;28;20427;-74
2021/05/03 15:38:47;;;;;;;1.93;1.60;;;;;;;;;;4999032;28;20460;-76
2021/05/03 15:41:18;;;;;;;4.67;1.83;;;;;;;;;;4996050;28;20395;-76
2021/05/03 15:43:46;;;;;;;1.53;1.43;;;;;;;;;;5008373;28;20419;-76
2021/05/03 15:46:13;;;;;;;2.57;1.67;;;;;;;;;;4999894;28;20438;-76